Estación Meteorológica Peña el Pijo (Robertgarden) [ 10/16/18 14:03:35 CEST ]

Fecha Hora Presion(HPa) Temp (°C) Humedad % Rocio (°C) Viento ( m/s) Direccion Lluvia 1Hora(mm) Lluvia 24H(mm) LLuvia Total(mm)
2018-Oct-10 01:01:41 1002.700 9.7 88 7.8       5.18 5.18
2018-Oct-10 02:01:39 1002.700 8.5 89 6.6       5.18 5.18
2018-Oct-10 03:02:15 1002.400 8.4 89 6.7       5.18 5.18
2018-Oct-10 04:01:56 1001.900 8.1 89 6.4       5.18 5.18
2018-Oct-10 05:02:01 1001.800 6.9 90 5.4       5.18 5.18
2018-Oct-10 06:01:41 1001.300 6.6 90 5.1       5.18 5.18
2018-Oct-10 07:01:32 1001.100 7.2 90 5.7       5.18 5.18
2018-Oct-10 08:01:37 1001.400 7.3 90 5.8       4.66 5.18
2018-Oct-10 09:01:35 1001.700 7.8 91 6.4       4.14 5.18
2018-Oct-10 10:01:45 1002.000 10.6 92 9.3       4.14 5.18
2018-Oct-10 11:01:28 1001.800 15.8 89 14.0       4.14 5.18
2018-Oct-10 12:01:29 1001.700 19.4 70 13.8 1.3 NNE   4.14 5.18
2018-Oct-10 13:01:27 1001.800 18.4 65 11.7       4.14 5.18
2018-Oct-10 14:02:01 1001.700 17.4 66 11.0 2.3 N   1.55 5.18
2018-Oct-10 15:01:22 1001.400 18.0 68 11.9       1.55 5.18
2018-Oct-10 16:01:37 1001.800 15.9 77 11.9     1.03 2.59 6.21
2018-Oct-10 17:01:18 1001.800 16.4 79 12.6       1.55 6.21
2018-Oct-10 18:01:19 1001.800 16.0 81 12.8     0.51 2.07 6.73
2018-Oct-10 19:01:47 1002.100 14.9 82 11.9       2.07 6.73
2018-Oct-10 20:01:26 1002.700 13.4 84 10.8       2.07 6.73
2018-Oct-10 21:01:35 1003.400 13.2 85 10.7       1.55 6.73
2018-Oct-10 22:01:26 1003.700 11.5 86 9.2       1.55 6.73
2018-Oct-10 23:01:13 1004.600 10.7 88 8.6       1.55 6.73

Temperatura Máxima:19°    Temperatura Mínima:
Presión Máxima:1004.600 Hpa    Presión Mínima:1001.100 Hpa


Volver